createdAt,value
2022-10-24T00:03:23.522Z,96951.38
2022-10-24T00:08:28.517Z,96952.38
2022-10-24T00:13:32.013Z,96949.41
2022-10-24T00:18:36.000Z,96955.25
2022-10-24T00:23:40.927Z,96957.13
2022-10-24T00:28:44.854Z,96972.00
2022-10-24T00:33:49.218Z,96968.50
2022-10-24T00:38:54.254Z,96960.38
2022-10-24T00:44:19.826Z,96963.78
2022-10-24T00:49:27.297Z,96970.72
2022-10-24T00:54:32.192Z,96976.81
2022-10-24T00:59:37.170Z,96981.66
2022-10-24T01:04:40.738Z,96992.13
2022-10-24T01:10:02.100Z,96979.31
2022-10-24T01:15:14.237Z,96982.69
2022-10-24T01:20:42.246Z,96995.16
2022-10-24T01:25:56.566Z,96999.03
2022-10-24T01:31:08.167Z,96991.47
2022-10-24T01:36:16.466Z,97000.19
2022-10-24T01:41:24.376Z,96992.63
2022-10-24T01:46:33.518Z,96985.09
2022-10-24T01:51:39.777Z,96985.00
2022-10-24T01:56:43.257Z,96976.38
2022-10-24T02:01:48.405Z,96976.00
2022-10-24T02:06:52.684Z,96977.09
2022-10-24T02:12:00.032Z,96961.50
2022-10-24T02:17:05.317Z,96964.63
2022-10-24T02:22:18.515Z,96966.31
2022-10-24T02:27:27.075Z,96971.47
2022-10-24T02:32:36.749Z,96967.69
2022-10-24T02:37:44.832Z,96960.16
2022-10-24T02:42:52.488Z,96954.69
2022-10-24T02:48:02.513Z,96948.81
2022-10-24T02:53:05.903Z,96944.78
2022-10-24T02:58:09.776Z,96941.63
2022-10-24T03:03:14.534Z,96955.06
2022-10-24T03:08:17.971Z,96945.59
2022-10-24T03:13:21.333Z,96940.25
2022-10-24T03:18:26.412Z,96944.97
2022-10-24T03:23:29.911Z,96947.13
2022-10-24T03:28:33.344Z,96949.63
2022-10-24T03:33:38.045Z,96948.84
2022-10-24T03:38:41.393Z,96943.31
2022-10-24T03:43:44.787Z,96949.22
2022-10-24T03:48:49.569Z,96956.06
2022-10-24T03:53:53.086Z,96943.38
2022-10-24T03:58:56.493Z,96932.25
2022-10-24T04:04:01.169Z,96933.59
2022-10-24T04:09:04.718Z,96927.72
2022-10-24T04:14:09.712Z,96926.41
2022-10-24T04:19:17.557Z,96939.97
2022-10-24T04:24:21.129Z,96952.06
2022-10-24T04:29:24.934Z,96945.66
2022-10-24T04:34:29.670Z,96950.16
2022-10-24T04:39:33.074Z,96939.31
2022-10-24T04:44:36.388Z,96938.97
2022-10-24T04:49:41.211Z,96935.28
2022-10-24T04:54:44.751Z,96927.13
2022-10-24T04:59:48.162Z,96933.38
2022-10-24T05:04:53.232Z,96943.06
2022-10-24T05:09:56.655Z,96959.16
2022-10-24T05:14:59.988Z,96959.47
2022-10-24T05:20:06.263Z,96955.97
2022-10-24T05:25:10.127Z,96947.34
2022-10-24T05:30:14.400Z,96931.72
2022-10-24T05:35:19.589Z,96917.34
2022-10-24T05:40:23.021Z,96917.22
2022-10-24T05:45:26.731Z,96909.81
2022-10-24T05:50:31.802Z,96920.78
2022-10-24T05:55:35.493Z,96914.78
2022-10-24T06:00:38.893Z,96933.03
2022-10-24T06:05:43.794Z,96936.09
2022-10-24T06:10:48.764Z,96958.69
2022-10-24T06:21:38.280Z,96977.69
2022-10-24T06:26:41.782Z,96941.13
2022-10-24T06:31:45.359Z,96951.81
2022-10-24T06:36:50.245Z,96953.22
2022-10-24T06:41:53.556Z,96960.53
2022-10-24T06:46:56.943Z,96957.56
2022-10-24T06:52:01.805Z,96964.38
2022-10-24T06:57:05.272Z,96964.03
2022-10-24T07:02:12.503Z,96965.97
2022-10-24T07:07:21.655Z,96973.47
2022-10-24T07:12:26.762Z,96974.16
2022-10-24T07:17:30.479Z,96982.41
2022-10-24T07:22:36.566Z,96984.72
2022-10-24T07:27:40.782Z,96975.09
2022-10-24T07:32:45.086Z,96973.50
2022-10-24T07:37:52.175Z,96971.78
2022-10-24T07:42:56.145Z,96972.81
2022-10-24T07:48:00.851Z,96965.50
2022-10-24T07:53:06.103Z,96960.16
2022-10-24T07:58:10.426Z,96960.81
2022-10-24T08:03:15.750Z,96971.00
2022-10-24T08:08:35.090Z,96986.34
2022-10-24T08:13:40.389Z,96978.03
2022-10-24T08:18:44.257Z,96964.16
2022-10-24T08:23:51.597Z,96969.41
2022-10-24T08:28:56.289Z,96962.97
2022-10-24T08:33:59.836Z,96955.88
2022-10-24T08:39:05.230Z,96948.59
2022-10-24T08:44:21.189Z,96961.03
2022-10-24T08:49:31.399Z,96950.50
2022-10-24T08:54:40.826Z,96948.72
2022-10-24T08:59:44.518Z,96942.56
2022-10-24T09:04:53.416Z,96947.69
2022-10-24T09:10:11.643Z,96954.81
2022-10-24T09:15:25.753Z,96964.91
2022-10-24T09:20:33.498Z,96953.19
2022-10-24T09:25:59.810Z,96945.69
2022-10-24T09:31:06.318Z,96961.88
2022-10-24T09:36:13.611Z,96952.72
2022-10-24T09:41:22.729Z,96961.28
2022-10-24T09:46:28.906Z,96961.28
2022-10-24T09:51:34.498Z,96965.59
2022-10-24T09:56:41.196Z,96975.94
2022-10-24T10:01:45.681Z,96973.16
2022-10-24T10:06:51.626Z,96977.78
2022-10-24T10:12:03.170Z,96974.50
2022-10-24T10:17:08.367Z,96971.66
2022-10-24T10:22:24.780Z,96977.25
2022-10-24T10:27:34.937Z,96968.16
2022-10-24T10:32:47.755Z,96973.72
2022-10-24T10:37:59.857Z,96980.75
2022-10-24T10:43:18.112Z,96969.19
2022-10-24T10:48:36.687Z,96966.56
2022-10-24T10:53:46.048Z,96971.97
2022-10-24T10:59:02.655Z,96972.81
2022-10-24T11:04:15.937Z,96974.19
2022-10-24T11:09:30.923Z,96984.09
2022-10-24T11:14:40.357Z,96965.16
2022-10-24T11:20:02.836Z,96965.78
2022-10-24T11:25:18.096Z,96969.53
2022-10-24T11:30:32.356Z,96965.63
2022-10-24T11:35:42.990Z,96981.59
2022-10-24T11:40:54.873Z,96966.56
2022-10-24T11:46:13.002Z,96981.19
2022-10-24T11:51:23.003Z,96983.56
2022-10-24T11:56:33.531Z,96969.75
2022-10-24T12:02:13.216Z,96968.50
2022-10-24T12:07:54.512Z,96959.97
2022-10-24T12:13:28.496Z,96962.56
2022-10-24T12:18:35.666Z,96949.88
2022-10-24T12:23:41.912Z,96956.94
2022-10-24T12:28:55.140Z,96949.44
2022-10-24T12:34:34.518Z,96949.78
2022-10-24T12:39:44.383Z,96958.94
2022-10-24T12:45:15.524Z,96957.91
2022-10-24T12:51:01.724Z,96956.56
2022-10-24T13:01:34.285Z,96955.16
2022-10-24T13:06:50.999Z,96946.25
2022-10-24T13:12:08.705Z,96929.56
2022-10-24T13:17:20.708Z,96925.63
2022-10-24T13:22:31.672Z,96934.28
2022-10-24T13:27:36.670Z,96922.50
2022-10-24T13:32:41.672Z,96922.72
2022-10-24T13:37:49.649Z,96913.94
2022-10-24T13:42:58.503Z,96925.06
2022-10-24T13:48:06.910Z,96931.06
2022-10-24T13:53:27.686Z,96933.84
2022-10-24T13:58:44.308Z,96942.78
2022-10-24T14:03:49.747Z,96956.56
2022-10-24T14:09:05.592Z,96941.13
2022-10-24T14:14:26.529Z,96958.19
2022-10-24T14:19:32.537Z,96961.19
2022-10-24T14:24:45.236Z,96979.88
2022-10-24T14:29:56.722Z,96972.13
2022-10-24T14:40:06.696Z,96988.75
2022-10-24T14:45:25.915Z,96980.97
2022-10-24T14:50:38.198Z,96968.94
2022-10-24T14:55:41.965Z,96974.69
2022-10-24T15:00:47.488Z,96991.13
2022-10-24T15:05:55.755Z,96977.06
2022-10-24T15:11:07.828Z,96979.06
2022-10-24T15:16:23.200Z,96979.31
2022-10-24T15:21:32.890Z,96987.97
2022-10-24T15:26:39.352Z,96979.81
2022-10-24T15:31:46.274Z,96977.50
2022-10-24T15:36:52.017Z,96969.09
2022-10-24T15:41:56.065Z,96980.06
2022-10-24T15:47:01.215Z,96980.00
2022-10-24T15:52:10.489Z,96979.91
2022-10-24T15:57:15.375Z,96979.06
2022-10-24T16:02:23.809Z,96982.84
2022-10-24T16:07:27.207Z,96984.03
2022-10-24T16:12:30.522Z,96980.41
2022-10-24T16:17:35.732Z,96986.66
2022-10-24T16:22:39.088Z,96982.44
2022-10-24T16:27:42.558Z,96991.22
2022-10-24T16:32:48.357Z,96994.50
2022-10-24T16:37:52.412Z,96990.03
2022-10-24T16:42:59.482Z,96995.97
2022-10-24T16:48:05.147Z,96988.66
2022-10-24T16:53:08.939Z,97009.53
2022-10-24T16:58:13.524Z,97009.66
2022-10-24T17:03:18.336Z,97006.03
2022-10-24T17:08:24.163Z,97017.00
2022-10-24T17:13:31.580Z,97014.50
2022-10-24T17:18:38.667Z,97012.41
2022-10-24T17:23:42.707Z,97026.09
2022-10-24T17:28:47.432Z,97026.75
2022-10-24T17:34:04.332Z,97013.03
2022-10-24T17:39:14.852Z,97020.56
2022-10-24T17:44:19.780Z,97025.78
2022-10-24T17:49:25.155Z,97031.94
2022-10-24T17:54:28.625Z,97039.00
2022-10-24T17:59:32.464Z,97054.63
2022-10-24T18:04:39.611Z,97051.81
2022-10-24T18:09:43.178Z,97048.50
2022-10-24T18:14:46.508Z,97053.16
2022-10-24T18:19:51.500Z,97056.66
2022-10-24T18:24:55.998Z,97061.19
2022-10-24T18:29:59.995Z,97050.00
2022-10-24T18:35:05.277Z,97051.19
2022-10-24T18:40:11.421Z,97050.19
2022-10-24T18:45:20.172Z,97056.72
2022-10-24T18:50:31.744Z,97062.06
2022-10-24T18:55:37.053Z,97060.22
2022-10-24T19:00:43.658Z,97059.22
2022-10-24T19:05:54.712Z,97051.72
2022-10-24T19:11:00.734Z,97048.91
2022-10-24T19:16:09.301Z,97059.22
2022-10-24T19:21:16.334Z,97065.75
2022-10-24T19:26:20.405Z,97071.09
2022-10-24T19:31:24.260Z,97073.56
2022-10-24T19:36:31.872Z,97051.53
2022-10-24T19:41:35.660Z,97060.22
2022-10-24T19:46:40.712Z,97061.44
2022-10-24T19:51:49.151Z,97057.72
2022-10-24T19:56:55.511Z,97068.72
2022-10-24T20:01:59.966Z,97073.41
2022-10-24T20:07:05.084Z,97076.22
2022-10-24T20:12:12.029Z,97075.03
2022-10-24T20:17:15.723Z,97082.06
2022-10-24T20:22:20.974Z,97091.06
2022-10-24T20:27:25.389Z,97085.88
2022-10-24T20:32:29.094Z,97091.22
2022-10-24T20:37:34.683Z,97086.22
2022-10-24T20:42:38.070Z,97095.03
2022-10-24T20:47:42.011Z,97087.88
2022-10-24T20:52:48.656Z,97093.84
2022-10-24T20:57:52.695Z,97102.34
2022-10-24T21:02:59.759Z,97094.91
2022-10-24T21:08:06.552Z,97104.72
2022-10-24T21:13:10.010Z,97092.72
2022-10-24T21:18:13.463Z,97103.03
2022-10-24T21:23:19.393Z,97107.53
2022-10-24T21:28:22.792Z,97111.22
2022-10-24T21:33:26.287Z,97117.38
2022-10-24T21:38:32.746Z,97112.19
2022-10-24T21:43:38.847Z,97103.38
2022-10-24T21:48:43.856Z,97119.81
2022-10-24T21:53:50.788Z,97111.19
2022-10-24T21:58:56.186Z,97111.84
2022-10-24T22:04:00.816Z,97113.13
2022-10-24T22:09:06.920Z,97136.47
2022-10-24T22:14:13.363Z,97144.16
2022-10-24T22:19:17.225Z,97146.75
2022-10-24T22:24:24.337Z,97162.75
2022-10-24T22:29:27.785Z,97159.63
2022-10-24T22:34:31.805Z,97170.97
2022-10-24T22:39:37.377Z,97178.63
2022-10-24T22:44:41.195Z,97174.56
2022-10-24T22:49:54.950Z,97185.03
2022-10-24T22:55:00.985Z,97190.50
2022-10-24T23:00:08.869Z,97188.78
2022-10-24T23:05:20.666Z,97181.44
2022-10-24T23:10:25.968Z,97200.09
2022-10-24T23:15:30.210Z,97183.31
2022-10-24T23:20:36.673Z,97177.25
2022-10-24T23:25:43.415Z,97190.44
2022-10-24T23:30:47.403Z,97184.16
2022-10-24T23:35:55.770Z,97193.19
2022-10-24T23:41:01.719Z,97194.72
2022-10-24T23:46:13.463Z,97193.81
2022-10-24T23:51:22.882Z,97198.53
2022-10-24T23:56:29.838Z,97199.19
